Republic, Kansas
Current Conditions -  °F | °C
As of 8:35 PM on Wednesday 22 Oct 2014 (Local Time) from KHJH Reporting Station
Overcast Overcast  
Wind Chill: 61°   Ceiling: 8500
Heat Index: 61°   Visibility: 10mi
Dew Point: 57°   Wind: 5mph
Humidity: 88%   Direction: 160°SSE
Pressure: 30.04"   Gusts: NA
Location:  39.92°N, 97.82°W
Report Text: KHJH 230135Z AUTO 16004KT 10SM SCT050 BKN085 OVC110 16/14 A3004 RMK AO2 T01600141
Loading
Personal Weather Stations






























Interactive Weather Map
Tropical Storm Tracking
New forecast layout! Learn more

10-Day Weather Forecast

Advertisements
Track Severe Weather on mobile